Val-d'Or, Canada
Current Conditions -  °F | °C
As of 7:00 PM on Friday 21 Nov 2014 (Local Time) from CYVO Reporting Station
Scattered Clouds Scattered Clouds  
Wind Chill: -7°   Ceiling: Unl
Heat Index:   Visibility: 15mi
Dew Point:   Wind: 7mph
Humidity: 85%   Direction: 190°S
Pressure: 30.14"   Gusts: NA
Location:  48.1°N, 77.79°W
Report Text: CYVO 220000Z 19006KT 15SM SCT160 M15/M17 A3014 RMK AC4 SLP244
Loading
Personal Weather Stations






























Interactive Weather Map New forecast layout! Learn more

10-Day Weather Forecast

Advertisements
Track Severe Weather on mobile